createdAt,value
2022-09-18T00:02:02.948Z,2.40
2022-09-18T00:04:50.015Z,7.47
2022-09-18T00:07:36.712Z,3.60
2022-09-18T00:10:23.428Z,3.97
2022-09-18T00:13:10.707Z,4.43
2022-09-18T00:15:59.423Z,4.27
2022-09-18T00:18:46.326Z,5.17
2022-09-18T00:21:35.859Z,5.30
2022-09-18T00:24:24.328Z,3.27
2022-09-18T00:27:11.096Z,1.87
2022-09-18T00:29:57.778Z,3.87
2022-09-18T00:32:45.986Z,2.23
2022-09-18T00:35:32.873Z,2.83
2022-09-18T00:38:19.412Z,2.03
2022-09-18T00:41:09.492Z,2.90
2022-09-18T00:43:58.544Z,3.87
2022-09-18T00:46:46.608Z,2.73
2022-09-18T00:49:35.602Z,2.40
2022-09-18T00:52:25.045Z,2.07
2022-09-18T00:55:12.914Z,2.07
2022-09-18T00:58:02.389Z,1.60
2022-09-18T01:00:49.013Z,2.10
2022-09-18T01:03:35.815Z,3.40
2022-09-18T01:06:32.121Z,2.70
2022-09-18T01:09:29.632Z,1.80
2022-09-18T01:12:26.130Z,2.80
2022-09-18T01:15:20.022Z,1.90
2022-09-18T01:18:12.953Z,1.33
2022-09-18T01:21:11.037Z,2.00
2022-09-18T01:24:35.135Z,0.97
2022-09-18T01:27:31.731Z,1.03
2022-09-18T01:30:20.009Z,1.90
2022-09-18T01:33:11.354Z,1.00
2022-09-18T01:36:03.632Z,0.87
2022-09-18T01:38:54.750Z,1.33
2022-09-18T01:41:42.545Z,4.83
2022-09-18T01:44:33.023Z,1.90
2022-09-18T01:47:26.248Z,1.33
2022-09-18T01:50:15.405Z,0.70
2022-09-18T01:53:07.869Z,1.53
2022-09-18T01:56:00.794Z,2.10
2022-09-18T01:58:50.031Z,1.10
2022-09-18T02:01:40.449Z,0.87
2022-09-18T02:04:32.225Z,2.07
2022-09-18T02:07:25.361Z,0.70
2022-09-18T02:10:12.036Z,0.70
2022-09-18T02:13:01.264Z,0.93
2022-09-18T02:15:50.622Z,0.73
2022-09-18T02:18:46.516Z,0.53
2022-09-18T02:21:35.732Z,0.80
2022-09-18T02:24:27.515Z,1.40
2022-09-18T02:27:16.559Z,0.80
2022-09-18T02:30:06.336Z,0.47
2022-09-18T02:32:55.694Z,1.67
2022-09-18T02:35:47.678Z,2.77
2022-09-18T02:38:42.405Z,2.97
2022-09-18T02:41:46.763Z,0.60
2022-09-18T02:44:42.528Z,1.30
2022-09-18T02:47:44.485Z,2.30
2022-09-18T02:50:39.192Z,2.13
2022-09-18T02:53:30.921Z,0.67
2022-09-18T02:56:26.829Z,3.03
2022-09-18T02:59:20.829Z,0.97
2022-09-18T03:02:13.494Z,0.90
2022-09-18T03:05:02.073Z,3.20
2022-09-18T03:07:59.434Z,2.50
2022-09-18T03:10:48.275Z,0.87
2022-09-18T03:13:36.615Z,5.03
2022-09-18T03:16:23.478Z,4.53
2022-09-18T03:19:11.868Z,2.60
2022-09-18T03:21:58.681Z,3.27
2022-09-18T03:24:46.903Z,6.57
2022-09-18T03:27:35.667Z,5.37
2022-09-18T03:30:24.059Z,2.40
2022-09-18T03:33:10.499Z,5.70
2022-09-18T03:35:57.311Z,6.53
2022-09-18T03:38:45.542Z,8.00
2022-09-18T03:41:32.537Z,2.77
2022-09-18T03:44:19.906Z,6.37
2022-09-18T03:47:09.666Z,7.63
2022-09-18T03:49:56.857Z,5.73
2022-09-18T03:52:47.776Z,9.17
2022-09-18T03:55:57.990Z,5.87
2022-09-18T03:59:07.585Z,10.83
2022-09-18T04:02:33.934Z,8.63
2022-09-18T04:05:55.817Z,5.43
2022-09-18T04:09:01.046Z,8.93
2022-09-18T04:11:57.631Z,10.47
2022-09-18T04:14:44.332Z,7.10
2022-09-18T04:17:31.077Z,14.83
2022-09-18T04:20:19.190Z,6.20
2022-09-18T04:23:06.846Z,13.57
2022-09-18T04:25:54.722Z,14.07
2022-09-18T04:28:47.221Z,7.90
2022-09-18T04:31:35.170Z,4.73
2022-09-18T04:34:26.272Z,9.10
2022-09-18T04:37:14.354Z,9.60
2022-09-18T04:40:01.208Z,16.17
2022-09-18T04:42:50.424Z,9.20
2022-09-18T04:45:37.356Z,11.17
2022-09-18T04:48:24.604Z,7.33
2022-09-18T04:51:12.942Z,9.83
2022-09-18T04:54:10.007Z,8.97
2022-09-18T04:56:57.821Z,16.10
2022-09-18T04:59:44.213Z,11.73
2022-09-18T05:02:31.029Z,10.70
2022-09-18T05:05:17.648Z,8.13
2022-09-18T05:08:05.070Z,16.43
2022-09-18T05:10:52.910Z,10.87
2022-09-18T05:13:40.219Z,6.50
2022-09-18T05:16:34.197Z,8.43
2022-09-18T05:19:44.544Z,13.33
2022-09-18T05:22:38.776Z,15.03
2022-09-18T05:25:31.171Z,7.93
2022-09-18T05:28:19.895Z,11.03
2022-09-18T05:31:09.496Z,12.30
2022-09-18T05:34:01.908Z,8.63
2022-09-18T05:36:48.632Z,13.33
2022-09-18T05:39:35.208Z,4.67
2022-09-18T05:42:22.570Z,6.83
2022-09-18T05:45:12.274Z,7.83
2022-09-18T05:48:00.078Z,10.17
2022-09-18T05:50:48.545Z,10.30
2022-09-18T05:53:36.570Z,8.50
2022-09-18T05:56:29.131Z,13.37
2022-09-18T05:59:16.071Z,8.63
2022-09-18T06:02:08.457Z,7.43
2022-09-18T06:05:17.875Z,4.70
2022-09-18T06:08:06.155Z,5.67
2022-09-18T06:10:54.803Z,16.77
2022-09-18T06:13:41.586Z,8.07
2022-09-18T06:16:28.768Z,12.00
2022-09-18T06:19:24.084Z,10.60
2022-09-18T06:22:12.153Z,8.90
2022-09-18T06:24:58.673Z,6.70
2022-09-18T06:27:54.701Z,8.33
2022-09-18T06:30:41.245Z,8.20
2022-09-18T06:33:29.354Z,8.33
2022-09-18T06:36:18.811Z,6.67
2022-09-18T06:39:19.435Z,7.97
2022-09-18T06:42:09.369Z,7.67
2022-09-18T06:45:26.033Z,8.90
2022-09-18T06:48:12.820Z,11.37
2022-09-18T06:51:00.417Z,7.93
2022-09-18T06:53:53.217Z,14.93
2022-09-18T06:56:40.112Z,11.20
2022-09-18T06:59:29.259Z,15.07
2022-09-18T07:02:19.390Z,12.47
2022-09-18T07:05:27.213Z,8.60
2022-09-18T07:08:14.410Z,8.70
2022-09-18T07:11:03.631Z,13.50
2022-09-18T07:13:50.136Z,14.30
2022-09-18T07:16:37.569Z,7.23
2022-09-18T07:19:24.552Z,6.47
2022-09-18T07:22:11.347Z,6.53
2022-09-18T07:25:03.138Z,8.17
2022-09-18T07:27:51.355Z,10.47
2022-09-18T07:30:41.395Z,5.30
2022-09-18T07:33:27.953Z,12.10
2022-09-18T07:36:14.702Z,6.90
2022-09-18T07:39:01.940Z,10.40
2022-09-18T07:41:56.625Z,13.17
2022-09-18T07:44:44.492Z,8.00
2022-09-18T07:47:31.432Z,10.40
2022-09-18T07:50:24.104Z,9.70
2022-09-18T07:53:12.232Z,9.13
2022-09-18T07:56:01.097Z,7.90
2022-09-18T07:58:52.364Z,7.57
2022-09-18T08:01:45.850Z,6.07
2022-09-18T08:04:33.114Z,5.23
2022-09-18T08:07:31.035Z,8.00
2022-09-18T08:10:29.017Z,8.73
2022-09-18T08:13:32.480Z,9.67
2022-09-18T08:16:27.435Z,5.53
2022-09-18T08:19:28.394Z,8.53
2022-09-18T08:22:33.497Z,4.73
2022-09-18T08:25:21.344Z,7.97
2022-09-18T08:28:09.495Z,11.07
2022-09-18T08:31:03.607Z,9.40
2022-09-18T08:33:52.298Z,8.50
2022-09-18T08:36:41.112Z,8.63
2022-09-18T08:39:45.340Z,7.83
2022-09-18T08:43:15.904Z,9.97
2022-09-18T08:46:35.786Z,6.37
2022-09-18T08:49:30.662Z,6.57
2022-09-18T08:52:24.855Z,8.30
2022-09-18T08:55:27.468Z,6.67
2022-09-18T08:58:35.923Z,12.47
2022-09-18T09:01:29.584Z,6.73
2022-09-18T09:04:22.587Z,5.47
2022-09-18T09:07:33.220Z,3.97
2022-09-18T09:10:42.387Z,5.80
2022-09-18T09:14:11.281Z,8.37
2022-09-18T09:17:05.608Z,6.57
2022-09-18T09:19:55.498Z,5.80
2022-09-18T09:22:51.162Z,6.47
2022-09-18T09:25:46.550Z,8.00
2022-09-18T09:28:53.926Z,6.30
2022-09-18T09:32:10.913Z,7.27
2022-09-18T09:35:30.338Z,9.93
2022-09-18T09:38:35.553Z,10.67
2022-09-18T09:41:31.612Z,4.47
2022-09-18T09:44:34.809Z,2.60
2022-09-18T09:47:31.309Z,4.10
2022-09-18T09:50:42.417Z,5.63
2022-09-18T09:53:30.085Z,4.30
2022-09-18T09:56:24.013Z,6.00
2022-09-18T09:59:23.224Z,6.00
2022-09-18T10:02:37.465Z,7.93
2022-09-18T10:05:31.547Z,11.57
2022-09-18T10:08:25.181Z,1.97
2022-09-18T10:11:13.904Z,5.87
2022-09-18T10:14:11.833Z,4.93
2022-09-18T10:17:03.088Z,4.47
2022-09-18T10:19:50.287Z,4.00
2022-09-18T10:22:37.648Z,5.90
2022-09-18T10:25:39.899Z,4.53
2022-09-18T10:28:29.530Z,1.40
2022-09-18T10:31:19.064Z,6.30
2022-09-18T10:34:32.517Z,2.87
2022-09-18T10:37:39.362Z,2.37
2022-09-18T10:40:41.455Z,5.13
2022-09-18T10:43:29.450Z,2.97
2022-09-18T10:46:16.393Z,5.70
2022-09-18T10:49:24.844Z,6.43
2022-09-18T10:52:36.254Z,7.17
2022-09-18T10:55:53.894Z,4.03
2022-09-18T10:58:43.034Z,4.67
2022-09-18T11:01:31.094Z,7.83
2022-09-18T11:04:18.711Z,5.73
2022-09-18T11:07:08.061Z,3.47
2022-09-18T11:09:56.208Z,1.40
2022-09-18T11:12:53.564Z,3.43
2022-09-18T11:15:54.297Z,5.27
2022-09-18T11:18:41.793Z,5.63
2022-09-18T11:21:29.984Z,5.07
2022-09-18T11:24:25.274Z,3.17
2022-09-18T11:27:21.404Z,4.17
2022-09-18T11:30:16.384Z,5.23
2022-09-18T11:33:23.330Z,5.20
2022-09-18T11:36:12.264Z,7.43
2022-09-18T11:39:02.542Z,2.00
2022-09-18T11:41:55.686Z,5.03
2022-09-18T11:44:43.480Z,9.27
2022-09-18T11:47:37.884Z,5.13
2022-09-18T11:50:27.524Z,4.77
2022-09-18T11:53:18.098Z,2.90
2022-09-18T11:56:09.914Z,2.80
2022-09-18T11:59:05.331Z,4.13
2022-09-18T12:01:58.061Z,3.83
2022-09-18T12:04:49.532Z,3.07
2022-09-18T12:07:44.360Z,6.20
2022-09-18T12:10:46.161Z,8.70
2022-09-18T12:13:48.148Z,5.47
2022-09-18T12:16:46.143Z,3.93
2022-09-18T12:19:39.191Z,3.83
2022-09-18T12:22:38.460Z,4.30
2022-09-18T12:25:34.567Z,3.03
2022-09-18T12:28:39.776Z,4.43
2022-09-18T12:31:37.764Z,3.97
2022-09-18T12:34:37.932Z,4.30
2022-09-18T12:37:40.177Z,9.53
2022-09-18T12:41:00.914Z,6.70
2022-09-18T12:44:17.650Z,1.33
2022-09-18T12:47:19.100Z,5.03
2022-09-18T12:50:51.881Z,4.83
2022-09-18T12:54:06.482Z,3.80
2022-09-18T12:57:14.846Z,3.87
2022-09-18T13:00:20.327Z,4.67
2022-09-18T13:03:30.031Z,4.23
2022-09-18T13:06:53.749Z,4.67
2022-09-18T13:09:51.573Z,2.40
2022-09-18T13:12:42.934Z,5.47
2022-09-18T13:15:34.247Z,3.90
2022-09-18T13:18:33.007Z,2.87
2022-09-18T13:21:28.709Z,7.47
2022-09-18T13:24:18.388Z,1.77
2022-09-18T13:27:10.490Z,5.07
2022-09-18T13:29:59.564Z,2.83
2022-09-18T13:32:46.091Z,8.37
2022-09-18T13:35:35.440Z,6.77
2022-09-18T13:38:26.284Z,1.77
2022-09-18T13:41:14.862Z,0.90
2022-09-18T13:44:03.952Z,1.10
2022-09-18T13:46:52.185Z,2.90
2022-09-18T13:49:48.425Z,1.53
2022-09-18T13:52:56.321Z,1.03
2022-09-18T13:55:53.227Z,2.23
2022-09-18T13:58:50.935Z,0.70
2022-09-18T14:02:04.407Z,1.03
2022-09-18T14:05:26.795Z,1.80
2022-09-18T14:08:37.741Z,2.50
2022-09-18T14:11:26.387Z,0.83
2022-09-18T14:14:14.779Z,5.03
2022-09-18T14:17:13.290Z,1.17
2022-09-18T14:20:08.109Z,1.30
2022-09-18T14:22:54.921Z,4.67
2022-09-18T14:25:47.233Z,4.93
2022-09-18T14:28:36.747Z,5.23
2022-09-18T14:31:29.561Z,0.70
2022-09-18T14:34:22.509Z,2.60
2022-09-18T14:37:25.562Z,2.83
2022-09-18T14:40:20.194Z,1.67
2022-09-18T14:43:16.547Z,2.90
2022-09-18T14:46:05.043Z,0.70
2022-09-18T14:48:51.878Z,0.93
2022-09-18T14:52:03.281Z,1.47
2022-09-18T14:54:52.642Z,4.07
2022-09-18T14:57:44.793Z,1.97
2022-09-18T15:00:33.592Z,7.57
2022-09-18T15:03:26.538Z,2.23
2022-09-18T15:06:18.921Z,5.10
2022-09-18T15:09:07.686Z,6.63
2022-09-18T15:12:03.101Z,2.10
2022-09-18T15:14:50.258Z,1.60
2022-09-18T15:17:37.030Z,4.63
2022-09-18T15:20:26.333Z,0.70
2022-09-18T15:23:20.918Z,2.67
2022-09-18T15:26:13.818Z,0.57
2022-09-18T15:29:03.660Z,6.87
2022-09-18T15:31:51.136Z,3.90
2022-09-18T15:34:42.014Z,4.60
2022-09-18T15:37:30.334Z,1.07
2022-09-18T15:40:19.829Z,3.10
2022-09-18T15:43:08.479Z,4.50
2022-09-18T15:46:03.347Z,0.77
2022-09-18T15:48:51.041Z,2.57
2022-09-18T15:51:38.709Z,3.97
2022-09-18T15:54:28.801Z,2.70
2022-09-18T15:57:15.957Z,8.13
2022-09-18T16:00:04.673Z,3.07
2022-09-18T16:03:01.474Z,6.43
2022-09-18T16:05:54.470Z,3.03
2022-09-18T16:08:41.260Z,3.03
2022-09-18T16:11:40.655Z,2.73
2022-09-18T16:14:50.133Z,4.57
2022-09-18T16:17:55.345Z,1.70
2022-09-18T16:20:43.695Z,2.53
2022-09-18T16:23:34.023Z,4.20
2022-09-18T16:26:28.045Z,1.60
2022-09-18T16:29:20.650Z,1.87
2022-09-18T16:32:11.829Z,1.10
2022-09-18T16:34:58.924Z,3.20
2022-09-18T16:37:45.654Z,1.70
2022-09-18T16:40:32.502Z,8.73
2022-09-18T16:43:19.751Z,5.10
2022-09-18T16:46:08.057Z,1.57
2022-09-18T16:48:55.922Z,2.97
2022-09-18T16:51:42.580Z,1.90
2022-09-18T16:54:29.383Z,3.93
2022-09-18T16:57:20.668Z,5.33
2022-09-18T17:00:10.192Z,2.47
2022-09-18T17:03:00.573Z,1.20
2022-09-18T17:05:47.533Z,3.50
2022-09-18T17:08:34.309Z,4.60
2022-09-18T17:11:21.098Z,5.70
2022-09-18T17:14:08.087Z,3.87
2022-09-18T17:16:54.983Z,4.80
2022-09-18T17:19:42.973Z,2.33
2022-09-18T17:22:30.905Z,11.40
2022-09-18T17:25:18.217Z,2.30
2022-09-18T17:28:05.122Z,1.10
2022-09-18T17:30:54.369Z,4.87
2022-09-18T17:33:43.271Z,2.30
2022-09-18T17:36:31.143Z,2.33
2022-09-18T17:39:18.101Z,1.97
2022-09-18T17:42:05.233Z,4.80
2022-09-18T17:44:51.988Z,2.30
2022-09-18T17:47:38.514Z,6.00
2022-09-18T17:50:25.658Z,4.10
2022-09-18T17:53:13.471Z,1.57
2022-09-18T17:56:00.565Z,3.07
2022-09-18T17:58:47.986Z,1.10
2022-09-18T18:01:38.154Z,1.47
2022-09-18T18:04:24.925Z,0.93
2022-09-18T18:07:11.733Z,0.80
2022-09-18T18:09:59.901Z,3.20
2022-09-18T18:12:46.646Z,1.63
2022-09-18T18:15:33.263Z,5.73
2022-09-18T18:18:20.634Z,0.90
2022-09-18T18:21:08.041Z,1.27
2022-09-18T18:23:56.431Z,1.27
2022-09-18T18:26:45.219Z,1.97
2022-09-18T18:29:32.421Z,0.93
2022-09-18T18:32:19.257Z,1.37
2022-09-18T18:35:06.316Z,1.40
2022-09-18T18:37:52.787Z,2.37
2022-09-18T18:40:40.499Z,2.30
2022-09-18T18:43:29.016Z,0.87
2022-09-18T18:46:15.751Z,3.30
2022-09-18T18:49:03.677Z,4.17
2022-09-18T18:51:51.944Z,4.00
2022-09-18T18:54:39.874Z,1.63
2022-09-18T18:57:26.710Z,1.10
2022-09-18T19:00:15.352Z,3.37
2022-09-18T19:03:02.487Z,2.50
2022-09-18T19:05:49.395Z,3.10
2022-09-18T19:08:36.044Z,2.93
2022-09-18T19:11:23.822Z,1.10
2022-09-18T19:14:14.217Z,3.10
2022-09-18T19:17:02.308Z,4.77
2022-09-18T19:19:49.678Z,5.67
2022-09-18T19:22:36.445Z,1.87
2022-09-18T19:25:23.975Z,2.50
2022-09-18T19:28:10.597Z,2.73
2022-09-18T19:30:57.296Z,4.20
2022-09-18T19:33:46.455Z,1.20
2022-09-18T19:36:34.181Z,2.17
2022-09-18T19:39:25.850Z,1.53
2022-09-18T19:42:17.228Z,1.27
2022-09-18T19:45:06.174Z,4.00
2022-09-18T19:48:01.596Z,1.47
2022-09-18T19:50:49.995Z,2.20
2022-09-18T19:53:36.658Z,2.70
2022-09-18T19:56:42.033Z,5.43
2022-09-18T19:59:29.948Z,1.83
2022-09-18T20:02:18.422Z,1.27
2022-09-18T20:05:06.024Z,1.47
2022-09-18T20:07:54.470Z,2.03
2022-09-18T20:10:41.644Z,3.73
2022-09-18T20:13:28.371Z,2.53
2022-09-18T20:16:15.277Z,3.43
2022-09-18T20:19:02.388Z,3.03
2022-09-18T20:21:49.277Z,2.87
2022-09-18T20:24:37.541Z,2.87
2022-09-18T20:27:25.540Z,3.70
2022-09-18T20:30:13.460Z,4.83
2022-09-18T20:33:02.101Z,2.23
2022-09-18T20:35:55.944Z,8.03
2022-09-18T20:38:43.750Z,1.47
2022-09-18T20:41:32.289Z,2.30
2022-09-18T20:44:19.748Z,2.27
2022-09-18T20:47:07.208Z,4.83
2022-09-18T20:49:54.406Z,3.23
2022-09-18T20:52:43.152Z,6.20
2022-09-18T20:55:29.953Z,6.53
2022-09-18T20:58:18.373Z,4.43
2022-09-18T21:01:09.404Z,3.80
2022-09-18T21:04:01.127Z,1.30
2022-09-18T21:06:51.711Z,2.17
2022-09-18T21:09:38.212Z,1.90
2022-09-18T21:12:25.827Z,5.70
2022-09-18T21:15:15.208Z,4.10
2022-09-18T21:18:01.800Z,3.70
2022-09-18T21:20:48.659Z,3.97
2022-09-18T21:23:52.852Z,4.13
2022-09-18T21:26:41.563Z,1.87
2022-09-18T21:29:29.958Z,1.73
2022-09-18T21:32:18.154Z,6.17
2022-09-18T21:35:06.509Z,4.13
2022-09-18T21:37:55.231Z,3.53
2022-09-18T21:40:41.803Z,8.53
2022-09-18T21:43:29.026Z,3.17
2022-09-18T21:46:19.435Z,4.47
2022-09-18T21:49:09.479Z,3.97
2022-09-18T21:51:58.520Z,1.17
2022-09-18T21:54:49.563Z,3.30
2022-09-18T21:57:36.963Z,2.67
2022-09-18T22:00:23.445Z,1.87
2022-09-18T22:03:10.237Z,3.60
2022-09-18T22:06:00.724Z,3.83
2022-09-18T22:08:48.959Z,3.40
2022-09-18T22:11:37.061Z,2.10
2022-09-18T22:14:25.991Z,2.67
2022-09-18T22:17:12.431Z,3.70
2022-09-18T22:19:59.319Z,2.03
2022-09-18T22:22:47.587Z,3.37
2022-09-18T22:25:34.731Z,2.33
2022-09-18T22:28:21.728Z,4.07
2022-09-18T22:31:08.704Z,1.90
2022-09-18T22:33:57.607Z,3.43
2022-09-18T22:36:44.944Z,4.47
2022-09-18T22:39:33.109Z,5.63
2022-09-18T22:42:20.160Z,2.77
2022-09-18T22:45:08.536Z,2.80
2022-09-18T22:47:54.903Z,2.83
2022-09-18T22:50:43.508Z,3.73
2022-09-18T22:53:30.043Z,4.50
2022-09-18T22:56:18.909Z,5.73
2022-09-18T22:59:06.289Z,2.43
2022-09-18T23:01:56.458Z,1.80
2022-09-18T23:04:43.124Z,4.57
2022-09-18T23:07:29.900Z,4.30
2022-09-18T23:10:16.680Z,5.50
2022-09-18T23:13:04.703Z,6.87
2022-09-18T23:15:51.107Z,7.43
2022-09-18T23:18:38.295Z,3.33
2022-09-18T23:21:26.962Z,6.17
2022-09-18T23:24:16.090Z,3.17
2022-09-18T23:27:02.713Z,4.27
2022-09-18T23:29:51.383Z,7.00
2022-09-18T23:32:38.023Z,8.60
2022-09-18T23:35:24.822Z,4.37
2022-09-18T23:38:11.537Z,2.60
2022-09-18T23:41:00.795Z,3.17
2022-09-18T23:43:49.503Z,7.40
2022-09-18T23:46:37.721Z,4.80
2022-09-18T23:49:24.231Z,1.90
2022-09-18T23:52:10.623Z,7.87
2022-09-18T23:54:57.376Z,3.23
2022-09-18T23:57:44.202Z,3.90
